Latest Weather Observations for Leinster

IDW60801

Issued at 4:33 pm WST Friday 20 October 2017 (issued every 30 minutes, with the page automatically refreshed every 10 minutes)

About weather observations | Map of weather stations | Latest weather observations for WA | Other Formats
Station Details ID: 012314 Name: LEINSTER AERO Lat: -27.84 Lon: 120.70 Height: 497.0 m
Data from the previous 72 hours. | See also: Recent months at Leinster
Date/Time
WST
Temp
°C
App
Temp
°C
Dew
Point
°C
Rel
Hum
%
Delta-T
°C
Wind Press
QNH
hPa
Press
MSL
hPa
Rain since
9am
mm
Dir  Spd
km/h
Gust
km/h
Spd
kts
Gust
kts
20/04:30pm 29.9 25.3 3.8 19 13.6 E 17 30 9 16 1020.5 1018.1 0.0
20/04:00pm 30.1 25.0 4.0 19 13.6 ENE 20 33 11 18 1020.2 1017.9 0.0
20/03:30pm 30.8 24.9 3.8 18 14.1 ENE 24 35 13 19 1020.1 1017.8 0.0
20/03:00pm 31.4 26.5 5.0 19 14.1 ENE 20 33 11 18 1020.2 1017.9 0.0
20/02:30pm 29.8 24.4 4.4 20 13.4 E 22 43 12 23 1020.6 1018.2 0.0
20/02:00pm 30.0 25.2 4.6 20 13.4 ENE 19 35 10 19 1021.0 1018.7 0.0
20/01:30pm 29.9 24.5 4.5 20 13.4 ENE 22 35 12 19 1021.4 1019.1 0.0
20/01:00pm 28.9 23.3 3.7 20 13.0 ENE 22 39 12 21 1021.8 1019.5 0.0
20/12:30pm 27.8 22.6 3.5 21 12.4 E 20 35 11 19 1022.4 1020.1 0.0
20/12:00pm 27.6 22.2 2.6 20 12.5 E 20 32 11 17 1022.9 1020.6 0.0
20/11:30am 26.8 20.4 3.3 22 11.9 E 26 37 14 20 1023.2 1020.9 0.0
20/11:00am 26.1 20.1 3.4 23 11.4 E 24 39 13 21 1023.7 1021.4 0.0
20/10:30am 25.4 18.7 3.4 24 11.1 E 28 39 15 21 1024.2 1021.9 0.0
20/10:00am 24.5 17.7 3.2 25 10.6 E 28 43 15 23 1024.7 1022.4 0.0
20/09:30am 23.8 17.0 3.2 26 10.2 E 28 41 15 22 1025.2 1022.9 0.0
20/09:00am 22.1 14.6 3.3 29 9.2 ENE 32 44 17 24 1025.3 1023.0 0.0
20/08:30am 20.5 14.1 3.3 32 8.4 E 26 39 14 21 1025.4 1023.1 0.0
20/08:00am 19.2 12.7 2.6 33 7.8 E 26 39 14 21 1025.3 1023.0 0.0
20/07:30am 18.4 11.6 3.1 36 7.3 E 28 41 15 22 1025.2 1022.9 0.0
20/07:00am 17.3 11.2 2.9 38 6.7 E 24 37 13 20 1025.2 1022.9 0.0
20/06:30am 16.4 10.7 2.8 40 6.3 E 22 37 12 20 1025.1 1022.8 0.0
20/06:00am 15.7 10.5 2.5 41 6.1 E 19 32 10 17 1025.0 1022.7 0.0
20/05:30am 15.1 10.2 2.3 42 5.8 ESE 17 24 9 13 1024.5 1022.3 0.0
20/05:00am 15.2 9.9 1.7 40 6.1 ESE 19 26 10 14 1024.0 1021.7 0.0
20/04:30am 15.6 10.3 1.7 39 6.3 ESE 19 28 10 15 1023.8 1021.5 0.0
20/04:00am 16.0 11.0 1.3 37 6.6 E 17 24 9 13 1023.7 1021.4 0.0
20/03:30am 15.6 11.0 1.4 38 6.4 E 15 20 8 11 1023.4 1021.1 0.0
20/03:00am 15.2 10.8 0.6 37 6.4 ESE 13 19 7 10 1023.4 1021.1 0.0
20/02:30am 15.3 11.3 0.3 36 6.6 ESE 11 17 6 9 1023.4 1021.1 0.0
20/02:00am 14.6 10.9 0.1 37 6.3 ESE 9 11 5 6 1023.6 1021.3 0.0
20/01:30am 15.4 12.1 0.4 36 6.6 ESE 7 9 4 5 1023.8 1021.5 0.0
20/01:00am 16.1 12.5 0.3 34 6.9 E 9 13 5 7 1023.9 1021.6 0.0
20/12:30am 16.4 12.8 0.5 34 7.1 E 9 11 5 6 1024.0 1021.7 0.0
20/12:00am 17.2 13.9 0.4 32 7.5 ESE 7 11 4 6 1024.2 1021.9 0.0
 
Date/Time
WST
Temp
°C
App
Temp
°C
Dew
Point
°C
Rel
Hum
%
Delta-T
°C
Wind Press
QNH
hPa
Press
MSL
hPa
Rain since
9am
mm
Dir  Spd
km/h
Gust
km/h
Spd
kts
Gust
kts
19/11:30pm 18.1 14.9 0.7 31 7.9 E 7 11 4 6 1024.4 1022.2 0.0
19/11:00pm 18.8 15.2 0.9 30 8.1 E 9 11 5 6 1024.5 1022.3 0.0
19/10:30pm 19.6 15.3 1.1 29 8.6 E 13 19 7 10 1024.5 1022.3 0.0
19/10:00pm 19.6 15.3 1.1 29 8.5 E 13 19 7 10 1024.4 1022.2 0.0
19/09:30pm 19.6 15.7 1.1 29 8.6 E 11 17 6 9 1024.3 1022.1 0.0
19/09:00pm 19.7 16.2 1.2 29 8.5 E 9 11 5 6 1024.1 1021.8 0.0
19/08:30pm 20.7 17.6 1.6 28 9.0 ESE 7 9 4 5 1023.9 1021.6 0.0
19/08:00pm 21.7 18.2 1.4 26 9.6 E 9 13 5 7 1023.3 1021.0 0.0
19/07:30pm 22.7 18.9 1.7 25 10.1 E 11 15 6 8 1023.0 1020.7 0.0
19/07:00pm 23.5 19.7 1.8 24 10.4 E 11 17 6 9 1022.6 1020.3 0.0
19/06:30pm 24.5 19.5 1.4 22 11.1 E 17 24 9 13 1022.0 1019.7 0.0
19/06:00pm 25.3 20.2 0.8 20 11.7 E 17 26 9 14 1021.4 1019.1 0.0
19/05:30pm 26.1 20.0 0.7 19 12.2 ESE 22 35 12 19 1021.0 1018.7 0.0
19/05:00pm 26.7 20.7 1.2 19 12.4 ESE 22 32 12 17 1020.7 1018.3 0.0
19/04:30pm 27.0 21.3 0.7 18 12.8 ESE 20 32 11 17 1020.4 1018.0 0.0
19/04:00pm 27.0 20.9 0.7 18 12.7 E 22 35 12 19 1020.2 1017.9 0.0
19/03:30pm 27.5 20.2 0.3 17 13.1 ESE 28 39 15 21 1020.1 1017.8 0.0
19/03:00pm 27.6 21.1 0.4 17 13.1 ESE 24 39 13 21 1020.2 1017.9 0.0
19/02:30pm 28.0 21.4 -0.1 16 13.5 E 24 37 13 20 1020.4 1018.0 0.0
19/02:00pm 26.8 20.8 1.3 19 12.4 E 22 39 12 21 1020.7 1018.3 0.0
19/01:30pm 26.6 20.5 0.4 18 12.6 E 22 33 12 18 1021.2 1018.9 0.0
19/01:00pm 26.9 21.4 2.1 20 12.3 E 20 28 11 15 1021.6 1019.3 0.0
19/12:30pm 26.1 19.6 2.7 22 11.7 ESE 26 39 14 21 1022.2 1019.9 0.0
19/12:00pm 25.3 19.2 2.7 23 11.2 E 24 35 13 19 1022.8 1020.5 0.0
19/11:30am 24.3 17.9 3.0 25 10.6 E 26 43 14 23 1023.1 1020.8 0.0
19/11:00am 23.4 17.0 3.4 27 9.9 ESE 26 39 14 21 1023.6 1021.3 0.0
19/10:30am 23.3 16.7 4.3 29 9.6 E 28 39 15 21 1023.9 1021.6 0.0
19/10:03am 21.8 15.1 3.9 31 8.9 ESE 28 46 15 25 1024.1 1021.8 0.0
19/10:00am 21.8 14.8 3.9 31 8.8 SE 30 46 16 25 1024.0 1021.7 0.0
19/09:57am 22.2 15.7 4.7 32 8.8 ESE 28 46 15 25 1024.0 1021.7 0.0
19/09:30am 20.6 14.4 4.2 34 8.1 ESE 26 39 14 21 1024.1 1021.8 0.0
19/09:00am 19.5 13.7 4.4 37 7.4 ESE 24 39 13 21 1024.2 1021.9 0.0
19/08:39am 19.4 13.0 5.1 39 7.1 ESE 28 48 15 26 1023.9 1021.6 0.0
19/08:30am 18.9 13.2 4.7 39 7.0 ESE 24 39 13 21 1023.9 1021.6 0.0
19/08:00am 18.4 12.6 4.6 40 6.7 ESE 24 37 13 20 1023.8 1021.5 0.0
19/07:30am 17.8 11.6 4.4 41 6.5 ESE 26 39 14 21 1023.4 1021.1 0.0
19/07:00am 17.0 11.2 2.2 37 6.8 ESE 22 33 12 18 1023.0 1020.7 0.0
19/06:30am 16.1 10.3 -0.2 33 7.1 ESE 20 28 11 15 1022.6 1020.3 0.0
19/06:00am 15.4 9.9 -2.1 30 7.3 SE 17 24 9 13 1021.9 1019.6 0.0
19/05:30am 14.9 9.4 -2.1 31 7.1 SE 17 24 9 13 1021.6 1019.3 0.0
19/05:00am 14.8 9.7 -2.1 31 7.0 SE 15 20 8 11 1021.3 1019.0 0.0
19/04:30am 14.8 10.0 -2.6 30 7.1 SE 13 20 7 11 1021.0 1018.7 0.0
19/04:00am 14.4 10.0 -2.5 31 6.9 SSE 11 15 6 8 1020.6 1018.2 0.0
19/03:30am 14.3 10.3 -2.1 32 6.8 SSE 9 11 5 6 1020.2 1017.9 0.0
19/03:00am 15.0 10.3 -2.0 31 7.1 SSE 13 17 7 9 1020.0 1017.7 0.0
19/02:30am 15.6 10.5 -2.3 29 7.4 SSE 15 20 8 11 1019.8 1017.5 0.0
19/02:00am 16.0 11.3 -2.0 29 7.5 SSE 13 19 7 10 1019.9 1017.6 0.0
19/01:30am 16.6 10.6 -1.5 29 7.7 SSE 20 26 11 14 1019.9 1017.6 0.0
19/01:00am 17.1 11.4 -0.6 30 7.7 SSE 19 26 10 14 1020.0 1017.7 0.0
19/12:30am 17.5 11.9 -0.2 30 7.8 SSE 19 24 10 13 1020.0 1017.7 0.0
19/12:00am 17.5 12.4 0.6 32 7.6 SSE 17 22 9 12 1019.9 1017.6 0.0
 
Date/Time
WST
Temp
°C
App
Temp
°C
Dew
Point
°C
Rel
Hum
%
Delta-T
°C
Wind Press
QNH
hPa
Press
MSL
hPa
Rain since
9am
mm
Dir  Spd
km/h
Gust
km/h
Spd
kts
Gust
kts
18/11:30pm 17.9 13.7 1.4 33 7.6 SSE 13 19 7 10 1019.9 1017.6 0.0
18/11:00pm 17.5 14.0 1.5 34 7.3 S 9 11 5 6 1020.0 1017.7 0.0
18/10:30pm 17.7 14.2 1.2 33 7.5 SSW 9 11 5 6 1020.0 1017.7 0.0
18/10:00pm 18.6 14.7 1.2 31 8.0 S 11 13 6 7 1020.1 1017.8 0.0
18/09:30pm 19.2 15.7 1.2 30 8.3 SSW 9 13 5 7 1020.1 1017.8 0.0
18/09:00pm 19.9 16.0 1.4 29 8.6 S 11 15 6 8 1019.9 1017.6 0.0
18/08:30pm 20.0 16.1 1.0 28 8.8 SSW 11 13 6 7 1019.7 1017.4 0.0
18/08:00pm 20.6 17.1 1.0 27 9.1 SSW 9 13 5 7 1019.5 1017.2 0.0
18/07:30pm 21.5 17.5 0.7 25 9.7 SSW 11 13 6 7 1018.9 1016.5 0.0
18/07:00pm 22.4 18.1 0.9 24 10.1 SSW 13 15 7 8 1018.4 1016.0 0.0
18/06:30pm 23.2 18.1 0.9 23 10.6 SSW 17 22 9 12 1017.9 1015.6 0.0
18/06:00pm 24.0 18.9 1.0 22 11.0 SSW 17 26 9 14 1017.3 1015.0 0.0
18/05:30pm 24.8 19.9 2.3 23 11.1 S 17 28 9 15 1016.9 1014.5 0.0
18/05:00pm 25.5 20.6 2.2 22 11.5 SSW 17 24 9 13 1016.4 1014.0 0.0
18/04:30pm 25.3 19.7 1.4 21 11.6 S 20 33 11 18 1016.0 1013.7 0.0
18/04:00pm 25.8 20.9 1.8 21 11.8 SW 17 28 9 15 1015.7 1013.4 0.0
18/03:30pm 25.7 20.4 1.8 21 11.7 S 19 26 10 14 1015.7 1013.4 0.0
18/03:00pm 26.4 21.0 2.3 21 12.0 SSW 20 28 11 15 1015.7 1013.4 0.0
18/02:30pm 25.5 20.0 1.6 21 11.7 S 20 32 11 17 1015.7 1013.4 0.0
18/02:00pm 24.8 19.5 1.7 22 11.2 SSW 19 33 10 18 1015.9 1013.6 0.0
18/01:30pm 25.4 20.7 0.8 20 11.8 SW 15 26 8 14 1016.3 1013.9 0.0
18/01:00pm 24.2 19.9 1.2 22 11.0 SSW 13 22 7 12 1016.5 1014.1 0.0
18/12:30pm 24.6 19.9 0.8 21 11.4 SSW 15 32 8 17 1016.7 1014.3 0.0
18/12:00pm 23.8 18.8 1.4 23 10.7 S 17 28 9 15 1017.0 1014.6 0.0
18/11:30am 22.3 16.7 1.3 25 10.0 SW 20 32 11 17 1017.5 1015.2 0.0
18/11:00am 21.7 16.5 3.4 30 9.0 SSW 20 30 11 16 1017.6 1015.3 0.0
18/10:30am 20.9 15.9 3.6 32 8.5 SW 19 32 10 17 1017.8 1015.5 0.0
18/10:00am 20.7 16.1 3.9 33 8.3 SSW 17 28 9 15 1018.3 1015.9 0.0
18/09:30am 19.3 14.2 4.3 37 7.4 SSW 20 33 11 18 1018.3 1015.9 0.0
18/09:00am 18.8 13.4 4.6 39 7.0 SSW 22 33 12 18 1018.1 1015.8 0.0
18/08:30am 18.3 13.3 4.8 41 6.7 S 20 28 11 15 1018.0 1015.7 0.0
18/08:00am 17.0 12.1 4.3 43 6.1 SSW 19 26 10 14 1017.7 1015.4 0.0
18/07:30am 16.3 12.3 4.7 46 5.6 SW 15 22 8 12 1017.3 1015.0 0.0
18/07:00am 15.2 10.1 4.3 48 5.2 SSW 20 26 11 14 1017.0 1014.6 0.0
18/06:30am 14.3 10.6 4.6 52 4.6 SSW 13 22 7 12 1016.7 1014.3 0.0
18/06:00am 13.8 10.5 4.7 54 4.3 SSW 11 15 6 8 1016.2 1013.8 0.0
18/05:30am 13.5 9.8 4.6 55 4.2 SSW 13 19 7 10 1015.6 1013.3 0.0
18/05:00am 14.0 9.3 5.1 55 4.3 SSW 19 24 10 13 1015.0 1012.6 0.0
18/04:30am 14.4 9.1 5.0 53 4.5 SW 22 33 12 18 1014.6 1012.2 0.0
18/04:00am 15.0 9.0 5.2 52 4.8 SW 26 35 14 19 1014.1 1011.7 0.0
18/03:30am 15.6 10.3 5.2 50 5.1 SW 22 30 12 16 1013.4 1011.0 0.0
18/03:00am 16.2 10.5 4.9 47 5.5 SW 24 35 13 19 1013.0 1010.6 0.0
18/02:30am 17.0 12.0 4.7 44 6.0 SW 20 32 11 17 1012.8 1010.4 0.0
18/02:00am 17.7 13.2 4.3 41 6.5 SW 17 28 9 15 1012.4 1010.0 0.0
18/01:30am 17.8 13.6 4.0 40 6.7 SW 15 20 8 11 1012.3 1009.9 0.0
18/01:00am 17.9 14.1 3.8 39 6.8 SW 13 19 7 10 1012.3 1009.9 0.0
18/12:30am 18.1 15.0 3.6 38 7.0 SW 9 13 5 7 1012.4 1010.0 0.0
18/12:00am 18.7 15.5 3.3 36 7.4 SW 9 13 5 7 1012.6 1010.2 0.0
 
Date/Time
WST
Temp
°C
App
Temp
°C
Dew
Point
°C
Rel
Hum
%
Delta-T
°C
Wind Press
QNH
hPa
Press
MSL
hPa
Rain since
9am
mm
Dir  Spd
km/h
Gust
km/h
Spd
kts
Gust
kts
17/11:30pm 19.3 15.4 3.5 35 7.6 SW 13 17 7 9 1012.8 1010.4 0.0
17/11:00pm 19.9 16.0 3.2 33 8.1 SW 13 20 7 11 1012.9 1010.5 0.0
17/10:30pm 20.6 15.9 2.9 31 8.5 SW 17 20 9 11 1012.7 1010.3 0.0
17/10:00pm 20.8 16.8 2.6 30 8.8 SW 13 20 7 11 1012.6 1010.2 0.0
17/09:30pm 19.6 16.0 0.6 28 8.7 WSW 9 11 5 6 1012.6 1010.2 0.0
17/09:00pm 20.4 16.8 0.3 26 9.2 W 9 9 5 5 1012.6 1010.2 0.0
17/08:30pm 21.7 17.3 0.3 24 9.9 W 13 15 7 8 1012.4 1010.0 0.0
17/08:00pm 21.5 17.7 -0.5 23 10.0 WNW 9 11 5 6 1012.1 1009.7 0.0
17/07:30pm 22.6 18.4 -0.8 21 10.7 W 11 13 6 7 1011.6 1009.2 0.0
17/07:00pm 23.7 19.8 -1.3 19 11.4 W 9 11 5 6 1011.2 1008.8 0.0
17/06:30pm 24.8 20.5 -1.9 17 12.1 W 11 15 6 8 1010.7 1008.3 0.0
17/06:00pm 25.8 21.1 -1.9 16 12.7 W 13 17 7 9 1010.2 1007.8 0.0
17/05:30pm 26.6 21.1 -2.1 15 13.2 WNW 17 30 9 16 1009.8 1007.3 0.0
17/05:00pm 27.2 21.6 -2.6 14 13.7 WNW 17 28 9 15 1009.4 1007.0 0.0

Other Formats:

Comma delimited format used in spreadsheet applications
http://www.bom.gov.au/fwo/IDW60801/IDW60801.95448.axf

JavaScript Object Notation format (JSON) in row-major order
http://www.bom.gov.au/fwo/IDW60801/IDW60801.95448.json